createdAt,value
2023-01-29T00:01:25.252Z,42.75
2023-01-29T00:03:52.347Z,40.20
2023-01-29T00:06:19.335Z,37.65
2023-01-29T00:08:46.910Z,38.55
2023-01-29T00:11:14.054Z,33.53
2023-01-29T00:13:40.842Z,43.90
2023-01-29T00:16:07.982Z,39.72
2023-01-29T00:18:39.634Z,39.63
2023-01-29T00:21:14.268Z,35.10
2023-01-29T00:23:41.718Z,38.70
2023-01-29T00:26:08.775Z,36.15
2023-01-29T00:28:36.824Z,40.75
2023-01-29T00:31:07.991Z,38.22
2023-01-29T00:33:35.153Z,44.17
2023-01-29T00:36:02.665Z,40.65
2023-01-29T00:38:29.513Z,45.17
2023-01-29T00:41:15.057Z,39.60
2023-01-29T00:44:00.485Z,39.70
2023-01-29T00:46:27.321Z,39.40
2023-01-29T00:48:54.454Z,46.85
2023-01-29T00:51:21.403Z,39.60
2023-01-29T00:53:48.176Z,34.95
2023-01-29T00:56:14.951Z,39.72
2023-01-29T00:58:42.042Z,43.90
2023-01-29T01:01:08.859Z,40.03
2023-01-29T01:03:42.763Z,42.97
2023-01-29T01:06:10.783Z,40.88
2023-01-29T01:08:56.769Z,40.45
2023-01-29T01:11:23.646Z,41.42
2023-01-29T01:13:51.371Z,45.83
2023-01-29T01:16:21.023Z,42.00
2023-01-29T01:18:47.955Z,42.30
2023-01-29T01:21:14.779Z,39.15
2023-01-29T01:23:43.157Z,41.90
2023-01-29T01:26:10.944Z,53.33
2023-01-29T01:28:38.281Z,45.00
2023-01-29T01:31:12.919Z,40.05
2023-01-29T01:33:40.349Z,43.00
2023-01-29T01:36:10.380Z,40.95
2023-01-29T01:38:44.442Z,43.28
2023-01-29T01:41:12.776Z,44.15
2023-01-29T01:44:06.650Z,40.47
2023-01-29T01:46:37.698Z,42.90
2023-01-29T01:49:08.240Z,38.83
2023-01-29T01:51:36.307Z,43.70
2023-01-29T01:54:08.154Z,44.50
2023-01-29T01:56:40.739Z,45.83
2023-01-29T01:59:11.365Z,45.75
2023-01-29T02:01:42.911Z,46.42
2023-01-29T02:04:31.920Z,44.30
2023-01-29T02:07:19.864Z,46.55
2023-01-29T02:09:52.425Z,45.20
2023-01-29T02:12:19.957Z,45.45
2023-01-29T02:14:47.207Z,47.08
2023-01-29T02:17:15.892Z,43.85
2023-01-29T02:19:43.885Z,47.97
2023-01-29T02:22:10.886Z,47.78
2023-01-29T02:24:38.211Z,46.60
2023-01-29T02:27:10.365Z,48.20
2023-01-29T02:29:43.231Z,45.05
2023-01-29T02:32:09.979Z,39.63
2023-01-29T02:34:58.224Z,41.55
2023-01-29T02:37:34.938Z,43.58
2023-01-29T02:40:08.941Z,46.13
2023-01-29T02:42:41.870Z,43.25
2023-01-29T02:45:08.549Z,46.13
2023-01-29T02:47:40.326Z,38.92
2023-01-29T02:50:07.307Z,48.13
2023-01-29T02:52:38.349Z,45.25
2023-01-29T02:55:22.050Z,43.92
2023-01-29T02:57:51.354Z,45.50
2023-01-29T03:00:24.473Z,46.95
2023-01-29T03:02:56.304Z,43.22
2023-01-29T03:05:27.558Z,44.40
2023-01-29T03:07:56.754Z,44.65
2023-01-29T03:10:35.453Z,44.53
2023-01-29T03:13:35.472Z,46.60
2023-01-29T03:16:22.724Z,44.95
2023-01-29T03:18:53.082Z,38.72
2023-01-29T03:21:41.366Z,43.65
2023-01-29T03:24:31.518Z,45.47
2023-01-29T03:27:19.757Z,38.88
2023-01-29T03:30:07.386Z,45.13
2023-01-29T03:32:48.875Z,43.38
2023-01-29T03:35:21.114Z,42.17
2023-01-29T03:37:49.093Z,42.63
2023-01-29T03:40:16.829Z,43.42
2023-01-29T03:42:56.531Z,44.88
2023-01-29T03:45:26.378Z,42.58
2023-01-29T03:48:17.398Z,42.03
2023-01-29T03:50:54.308Z,49.00
2023-01-29T03:53:28.423Z,40.50
2023-01-29T03:56:07.215Z,42.75
2023-01-29T03:58:46.574Z,40.25
2023-01-29T04:01:26.135Z,44.78
2023-01-29T04:03:56.947Z,43.85
2023-01-29T04:06:27.383Z,42.92
2023-01-29T04:09:28.671Z,41.55
2023-01-29T04:11:59.873Z,37.83
2023-01-29T04:14:26.993Z,40.85
2023-01-29T04:16:57.858Z,36.08
2023-01-29T04:19:36.566Z,41.25
2023-01-29T04:22:10.662Z,42.97
2023-01-29T04:24:37.966Z,39.70
2023-01-29T04:27:07.759Z,39.17
2023-01-29T04:29:41.526Z,42.08
2023-01-29T04:34:51.925Z,40.80
2023-01-29T04:37:29.881Z,39.42
2023-01-29T04:40:00.936Z,39.58
2023-01-29T04:42:57.191Z,35.33
2023-01-29T04:45:27.083Z,42.60
2023-01-29T04:48:15.273Z,41.47
2023-01-29T04:50:45.661Z,39.58
2023-01-29T04:53:15.395Z,40.40
2023-01-29T04:55:51.516Z,41.22
2023-01-29T04:58:38.279Z,38.90
2023-01-29T05:01:06.818Z,38.30
2023-01-29T05:03:34.042Z,40.90
2023-01-29T05:06:01.819Z,40.03
2023-01-29T05:08:29.867Z,39.70
2023-01-29T05:10:58.117Z,43.33
2023-01-29T05:13:25.734Z,45.50
2023-01-29T05:15:56.247Z,43.42
2023-01-29T05:18:23.447Z,46.78
2023-01-29T05:20:50.453Z,43.90
2023-01-29T05:23:18.253Z,42.88
2023-01-29T05:25:45.634Z,39.55
2023-01-29T05:28:18.680Z,41.00
2023-01-29T05:30:49.836Z,37.45
2023-01-29T05:33:18.485Z,42.78
2023-01-29T05:35:45.914Z,42.33
2023-01-29T05:38:13.331Z,38.08
2023-01-29T05:40:40.400Z,43.53
2023-01-29T05:43:14.320Z,44.65
2023-01-29T05:45:41.545Z,38.42
2023-01-29T05:48:08.754Z,37.17
2023-01-29T05:50:35.892Z,41.30
2023-01-29T05:53:02.847Z,40.90
2023-01-29T05:55:29.706Z,41.47
2023-01-29T05:57:56.545Z,44.83
2023-01-29T06:00:23.634Z,46.25
2023-01-29T06:02:50.564Z,45.78
2023-01-29T06:05:17.439Z,45.17
2023-01-29T06:07:45.306Z,42.10
2023-01-29T06:10:16.383Z,41.28
2023-01-29T06:12:43.659Z,43.00
2023-01-29T06:15:11.706Z,53.63
2023-01-29T06:17:38.597Z,43.33
2023-01-29T06:20:05.788Z,40.63
2023-01-29T06:22:32.839Z,46.92
2023-01-29T06:24:59.620Z,46.55
2023-01-29T06:27:26.790Z,38.83
2023-01-29T06:29:53.615Z,44.40
2023-01-29T06:32:20.656Z,46.45
2023-01-29T06:34:49.662Z,41.05
2023-01-29T06:37:16.635Z,43.75
2023-01-29T06:39:43.322Z,40.30
2023-01-29T06:42:11.367Z,40.42
2023-01-29T06:44:38.196Z,44.78
2023-01-29T06:47:04.950Z,44.83
2023-01-29T06:49:31.797Z,35.58
2023-01-29T06:51:58.594Z,39.35
2023-01-29T06:54:25.379Z,39.97
2023-01-29T06:56:52.157Z,47.42
2023-01-29T06:59:18.818Z,42.40
2023-01-29T07:01:45.879Z,43.47
2023-01-29T07:04:12.904Z,41.10
2023-01-29T07:06:39.728Z,40.63
2023-01-29T07:09:06.565Z,42.65
2023-01-29T07:11:34.467Z,43.53
2023-01-29T07:14:01.281Z,44.25
2023-01-29T07:16:28.306Z,43.90
2023-01-29T07:18:55.470Z,42.92
2023-01-29T07:21:22.332Z,42.30
2023-01-29T07:23:49.190Z,40.10
2023-01-29T07:26:16.083Z,40.80
2023-01-29T07:28:42.986Z,45.65
2023-01-29T07:31:12.144Z,41.83
2023-01-29T07:33:39.298Z,44.33
2023-01-29T07:36:09.551Z,45.83
2023-01-29T07:38:36.649Z,40.50
2023-01-29T07:41:03.620Z,42.67
2023-01-29T07:43:30.671Z,39.08
2023-01-29T07:46:01.408Z,38.83
2023-01-29T07:48:28.477Z,38.03
2023-01-29T07:50:55.972Z,46.25
2023-01-29T07:53:23.673Z,41.47
2023-01-29T07:55:50.779Z,41.53
2023-01-29T07:58:17.791Z,40.60
2023-01-29T08:00:44.686Z,38.83
2023-01-29T08:03:13.100Z,39.33
2023-01-29T08:05:39.845Z,36.53
2023-01-29T08:08:12.136Z,38.22
2023-01-29T08:10:40.121Z,38.88
2023-01-29T08:13:07.078Z,36.90
2023-01-29T08:15:36.003Z,38.28
2023-01-29T08:18:04.314Z,47.63
2023-01-29T08:20:31.140Z,38.92
2023-01-29T08:23:01.852Z,43.00
2023-01-29T08:25:29.980Z,40.83
2023-01-29T08:27:57.925Z,40.92
2023-01-29T08:30:28.481Z,41.90
2023-01-29T08:32:55.906Z,42.50
2023-01-29T08:35:23.094Z,46.10
2023-01-29T08:37:56.882Z,37.33
2023-01-29T08:40:23.858Z,41.55
2023-01-29T08:42:50.735Z,42.70
2023-01-29T08:45:17.806Z,40.60
2023-01-29T08:47:48.494Z,37.10
2023-01-29T08:50:16.451Z,36.25
2023-01-29T08:52:43.900Z,35.42
2023-01-29T08:55:11.226Z,34.72
2023-01-29T08:57:39.051Z,36.92
2023-01-29T09:00:06.661Z,33.33
2023-01-29T09:02:33.585Z,34.88
2023-01-29T09:05:00.688Z,38.80
2023-01-29T09:07:29.146Z,32.55
2023-01-29T09:09:56.095Z,39.45
2023-01-29T09:12:22.779Z,36.50
2023-01-29T09:14:49.591Z,36.35
2023-01-29T09:17:16.333Z,37.47
2023-01-29T09:19:43.430Z,38.63
2023-01-29T09:22:11.828Z,38.20
2023-01-29T09:24:38.752Z,36.40
2023-01-29T09:27:06.340Z,34.78
2023-01-29T09:29:35.505Z,31.10
2023-01-29T09:32:03.994Z,36.22
2023-01-29T09:34:30.768Z,36.63
2023-01-29T09:36:57.669Z,35.42
2023-01-29T09:39:24.512Z,39.35
2023-01-29T09:42:04.260Z,36.60
2023-01-29T09:44:31.015Z,38.47
2023-01-29T09:47:00.194Z,33.92
2023-01-29T09:49:31.640Z,39.03
2023-01-29T09:52:00.833Z,43.08
2023-01-29T09:54:32.937Z,38.53
2023-01-29T09:57:00.764Z,39.97
2023-01-29T09:59:29.774Z,37.15
2023-01-29T10:02:00.124Z,39.88
2023-01-29T10:04:36.201Z,33.25
2023-01-29T10:07:16.351Z,39.03
2023-01-29T10:09:46.179Z,36.53
2023-01-29T10:12:13.045Z,38.65
2023-01-29T10:15:00.543Z,39.67
2023-01-29T10:17:30.571Z,46.67
2023-01-29T10:20:04.741Z,42.95
2023-01-29T10:22:31.500Z,43.13
2023-01-29T10:25:02.240Z,44.58
2023-01-29T10:27:33.764Z,34.20
2023-01-29T10:30:02.575Z,43.67
2023-01-29T10:32:30.579Z,37.97
2023-01-29T10:35:03.020Z,40.70
2023-01-29T10:37:38.015Z,40.13
2023-01-29T10:40:20.086Z,37.75
2023-01-29T10:42:50.088Z,42.83
2023-01-29T10:45:35.899Z,37.28
2023-01-29T10:48:04.829Z,35.70
2023-01-29T10:50:39.459Z,41.92
2023-01-29T10:53:09.447Z,38.60
2023-01-29T10:55:54.693Z,34.55
2023-01-29T10:58:27.469Z,40.67
2023-01-29T11:00:54.274Z,34.88
2023-01-29T11:03:31.253Z,43.83
2023-01-29T11:06:16.708Z,37.70
2023-01-29T11:08:49.670Z,37.83
2023-01-29T11:11:17.612Z,39.63
2023-01-29T11:13:50.809Z,43.55
2023-01-29T11:16:17.582Z,38.58
2023-01-29T11:18:53.998Z,38.15
2023-01-29T11:23:47.830Z,39.88
2023-01-29T11:26:18.341Z,41.30
2023-01-29T11:28:46.210Z,49.53
2023-01-29T11:31:39.511Z,41.03
2023-01-29T11:34:16.722Z,38.67
2023-01-29T11:36:45.014Z,37.58
2023-01-29T11:39:19.638Z,41.58
2023-01-29T11:41:49.796Z,40.33
2023-01-29T11:44:27.906Z,44.33
2023-01-29T11:46:55.276Z,38.20
2023-01-29T11:49:24.475Z,45.92
2023-01-29T11:51:52.709Z,41.33
2023-01-29T11:54:20.660Z,42.67
2023-01-29T11:56:48.078Z,40.92
2023-01-29T11:59:25.082Z,43.42
2023-01-29T12:01:52.014Z,48.72
2023-01-29T12:04:20.738Z,41.72
2023-01-29T12:06:50.598Z,39.75
2023-01-29T12:09:18.475Z,40.40
2023-01-29T12:11:45.316Z,43.80
2023-01-29T12:14:33.672Z,50.83
2023-01-29T12:17:06.737Z,43.25
2023-01-29T12:19:40.567Z,42.90
2023-01-29T12:22:15.272Z,50.28
2023-01-29T12:24:59.330Z,42.75
2023-01-29T12:27:32.228Z,40.53
2023-01-29T12:30:18.229Z,44.90
2023-01-29T12:32:49.965Z,45.33
2023-01-29T12:35:24.466Z,45.03
2023-01-29T12:38:08.132Z,44.88
2023-01-29T12:40:40.111Z,40.42
2023-01-29T12:43:17.124Z,47.90
2023-01-29T12:45:45.040Z,42.53
2023-01-29T12:48:19.454Z,46.10
2023-01-29T12:50:47.241Z,42.80
2023-01-29T12:53:23.325Z,41.15
2023-01-29T12:55:55.593Z,44.13
2023-01-29T12:58:24.208Z,46.45
2023-01-29T13:00:52.954Z,43.03
2023-01-29T13:03:24.185Z,43.00
2023-01-29T13:06:08.622Z,43.10
2023-01-29T13:08:37.688Z,39.33
2023-01-29T13:11:10.922Z,43.92
2023-01-29T13:13:54.104Z,52.35
2023-01-29T13:16:30.528Z,41.78
2023-01-29T13:21:34.043Z,41.00
2023-01-29T13:24:03.587Z,43.22
2023-01-29T13:26:31.965Z,41.83
2023-01-29T13:28:58.870Z,39.88
2023-01-29T13:31:30.338Z,37.35
2023-01-29T13:34:03.195Z,41.47
2023-01-29T13:36:30.808Z,43.97
2023-01-29T13:39:08.710Z,44.25
2023-01-29T13:41:39.975Z,41.33
2023-01-29T13:44:08.927Z,39.42
2023-01-29T13:46:39.513Z,41.72
2023-01-29T13:49:17.508Z,38.05
2023-01-29T13:51:44.332Z,35.70
2023-01-29T13:54:17.515Z,39.53
2023-01-29T13:57:10.810Z,40.15
2023-01-29T13:59:55.250Z,40.00
2023-01-29T14:02:31.200Z,39.25
2023-01-29T14:05:30.674Z,39.30
2023-01-29T14:07:59.317Z,42.15
2023-01-29T14:10:28.904Z,38.28
2023-01-29T14:13:18.155Z,40.58
2023-01-29T14:15:45.928Z,45.42
2023-01-29T14:18:12.806Z,39.70
2023-01-29T14:20:48.799Z,41.10
2023-01-29T14:23:36.078Z,43.35
2023-01-29T14:26:05.223Z,43.45
2023-01-29T14:28:33.350Z,42.85
2023-01-29T14:31:00.386Z,41.85
2023-01-29T14:33:43.336Z,45.50
2023-01-29T14:36:12.298Z,41.13
2023-01-29T14:38:39.949Z,42.50
2023-01-29T14:41:15.983Z,43.65
2023-01-29T14:43:42.812Z,39.28
2023-01-29T14:46:48.267Z,40.72
2023-01-29T14:49:35.732Z,42.17
2023-01-29T14:52:02.946Z,40.92
2023-01-29T14:54:33.655Z,39.47
2023-01-29T14:57:05.229Z,48.58
2023-01-29T14:59:37.922Z,41.25
2023-01-29T15:02:12.690Z,43.35
2023-01-29T15:04:42.974Z,42.92
2023-01-29T15:07:09.693Z,41.47
2023-01-29T15:09:55.619Z,45.90
2023-01-29T15:12:28.979Z,42.33
2023-01-29T15:15:13.857Z,44.50
2023-01-29T15:17:43.347Z,35.60
2023-01-29T15:20:28.700Z,31.42
2023-01-29T15:22:55.700Z,36.35
2023-01-29T15:25:22.498Z,39.13
2023-01-29T15:27:49.844Z,36.92
2023-01-29T15:30:18.396Z,40.03
2023-01-29T15:32:46.293Z,39.05
2023-01-29T15:35:31.970Z,37.50
2023-01-29T15:38:00.340Z,37.30
2023-01-29T15:40:27.801Z,36.80
2023-01-29T15:42:54.544Z,36.17
2023-01-29T15:45:22.668Z,38.38
2023-01-29T15:47:50.131Z,41.42
2023-01-29T15:50:17.710Z,38.60
2023-01-29T15:52:48.685Z,36.30
2023-01-29T15:55:16.108Z,41.35
2023-01-29T15:57:44.179Z,42.28
2023-01-29T16:00:40.702Z,41.95
2023-01-29T16:03:15.549Z,39.03
2023-01-29T16:05:42.726Z,41.65
2023-01-29T16:08:13.062Z,32.30
2023-01-29T16:10:41.530Z,46.33
2023-01-29T16:13:26.204Z,46.03
2023-01-29T16:15:55.057Z,47.28
2023-01-29T16:18:23.600Z,49.85
2023-01-29T16:20:52.078Z,44.15
2023-01-29T16:23:20.278Z,52.22
2023-01-29T16:25:47.838Z,43.90
2023-01-29T16:28:14.972Z,50.20
2023-01-29T16:30:41.841Z,43.20
2023-01-29T16:33:13.007Z,50.05
2023-01-29T16:35:40.577Z,48.05
2023-01-29T16:38:23.752Z,44.00
2023-01-29T16:41:09.235Z,45.35
2023-01-29T16:43:42.205Z,45.83
2023-01-29T16:46:38.613Z,46.10
2023-01-29T16:49:25.371Z,47.13
2023-01-29T16:54:23.419Z,44.38
2023-01-29T16:56:51.320Z,42.05
2023-01-29T16:59:35.158Z,45.50
2023-01-29T17:02:02.521Z,43.78
2023-01-29T17:04:29.491Z,41.35
2023-01-29T17:07:01.360Z,40.10
2023-01-29T17:09:35.038Z,43.65
2023-01-29T17:12:03.401Z,43.40
2023-01-29T17:14:31.171Z,43.80
2023-01-29T17:17:14.380Z,42.70
2023-01-29T17:19:41.379Z,50.15
2023-01-29T17:22:14.646Z,44.33
2023-01-29T17:24:41.863Z,41.20
2023-01-29T17:27:13.829Z,45.30
2023-01-29T17:29:40.572Z,47.15
2023-01-29T17:32:08.956Z,49.28
2023-01-29T17:34:35.772Z,48.15
2023-01-29T17:37:02.665Z,40.42
2023-01-29T17:39:29.615Z,45.55
2023-01-29T17:41:57.609Z,45.65
2023-01-29T17:44:26.215Z,44.67
2023-01-29T17:46:53.336Z,46.00
2023-01-29T17:49:24.921Z,52.42
2023-01-29T17:51:55.917Z,48.75
2023-01-29T17:54:23.136Z,46.60
2023-01-29T17:56:50.290Z,46.67
2023-01-29T17:59:18.607Z,48.88
2023-01-29T18:01:45.651Z,51.40
2023-01-29T18:04:13.599Z,55.20
2023-01-29T18:06:41.625Z,55.33
2023-01-29T18:09:10.220Z,46.45
2023-01-29T18:11:37.313Z,50.03
2023-01-29T18:14:13.587Z,43.95
2023-01-29T18:16:41.871Z,45.65
2023-01-29T18:19:22.898Z,45.30
2023-01-29T18:21:50.286Z,52.60
2023-01-29T18:24:17.141Z,45.75
2023-01-29T18:26:44.014Z,50.95
2023-01-29T18:29:10.948Z,44.83
2023-01-29T18:31:38.027Z,46.80
2023-01-29T18:34:05.053Z,46.38
2023-01-29T18:36:32.189Z,50.45
2023-01-29T18:38:59.083Z,49.17
2023-01-29T18:41:26.173Z,52.92
2023-01-29T18:43:53.276Z,44.88
2023-01-29T18:46:20.846Z,46.38
2023-01-29T18:48:47.881Z,46.95
2023-01-29T18:51:14.830Z,50.40
2023-01-29T18:53:41.791Z,44.97
2023-01-29T18:56:09.968Z,47.15
2023-01-29T18:58:37.242Z,51.35
2023-01-29T19:01:09.441Z,49.53
2023-01-29T19:03:36.969Z,48.83
2023-01-29T19:06:04.719Z,45.15
2023-01-29T19:08:31.647Z,45.97
2023-01-29T19:11:02.459Z,49.22
2023-01-29T19:13:30.124Z,48.60
2023-01-29T19:15:57.069Z,52.50
2023-01-29T19:18:26.137Z,52.90
2023-01-29T19:20:53.131Z,46.55
2023-01-29T19:23:20.468Z,52.58
2023-01-29T19:25:48.869Z,48.58
2023-01-29T19:28:15.707Z,44.25
2023-01-29T19:30:43.035Z,44.08
2023-01-29T19:33:10.223Z,47.83
2023-01-29T19:35:37.247Z,52.10
2023-01-29T19:38:04.433Z,48.53
2023-01-29T19:40:31.277Z,55.92
2023-01-29T19:42:58.822Z,52.08
2023-01-29T19:45:48.925Z,46.13
2023-01-29T19:48:14.840Z,50.92
2023-01-29T19:50:42.618Z,45.45
2023-01-29T19:53:09.880Z,52.45
2023-01-29T19:55:36.862Z,49.58
2023-01-29T19:58:04.775Z,51.22
2023-01-29T20:00:31.624Z,53.45
2023-01-29T20:02:58.408Z,49.58
2023-01-29T20:05:27.245Z,50.55
2023-01-29T20:07:54.186Z,54.20
2023-01-29T20:10:21.246Z,49.05
2023-01-29T20:12:48.215Z,48.65
2023-01-29T20:15:15.313Z,55.03
2023-01-29T20:17:42.348Z,32.35
2023-01-29T20:20:09.752Z,50.90
2023-01-29T20:22:36.620Z,55.70
2023-01-29T20:25:03.451Z,49.22
2023-01-29T20:27:30.259Z,49.60
2023-01-29T20:29:57.633Z,53.22
2023-01-29T20:32:24.559Z,53.78
2023-01-29T20:34:52.377Z,49.63
2023-01-29T20:37:19.806Z,56.28
2023-01-29T20:39:46.686Z,52.67
2023-01-29T20:42:13.452Z,57.28
2023-01-29T20:44:40.257Z,49.78
2023-01-29T20:47:07.381Z,60.25
2023-01-29T20:49:34.253Z,53.95
2023-01-29T20:52:01.075Z,57.78
2023-01-29T20:54:30.006Z,55.53
2023-01-29T20:56:57.167Z,61.88
2023-01-29T20:59:23.986Z,58.00
2023-01-29T21:01:51.017Z,60.60
2023-01-29T21:04:17.837Z,60.08
2023-01-29T21:06:44.737Z,59.70
2023-01-29T21:09:11.538Z,61.25
2023-01-29T21:11:38.222Z,51.15
2023-01-29T21:14:05.254Z,56.92
2023-01-29T21:16:32.208Z,58.25
2023-01-29T21:18:59.558Z,66.22
2023-01-29T21:21:26.931Z,60.22
2023-01-29T21:23:53.858Z,58.33
2023-01-29T21:26:20.595Z,45.63
2023-01-29T21:28:47.680Z,59.30
2023-01-29T21:31:16.201Z,51.38
2023-01-29T21:33:43.411Z,59.15
2023-01-29T21:36:10.824Z,62.08
2023-01-29T21:38:37.923Z,55.17
2023-01-29T21:41:06.448Z,59.72
2023-01-29T21:43:33.424Z,56.00
2023-01-29T21:46:11.929Z,58.00
2023-01-29T21:48:39.660Z,64.30
2023-01-29T21:51:06.603Z,57.45
2023-01-29T21:53:33.775Z,65.38
2023-01-29T21:56:01.402Z,59.80
2023-01-29T21:58:29.181Z,57.22
2023-01-29T22:00:56.232Z,67.13
2023-01-29T22:03:23.386Z,65.05
2023-01-29T22:05:50.607Z,60.13
2023-01-29T22:08:18.250Z,54.90
2023-01-29T22:10:45.336Z,56.78
2023-01-29T22:13:12.700Z,55.53
2023-01-29T22:15:39.633Z,61.55
2023-01-29T22:18:06.755Z,55.75
2023-01-29T22:20:33.633Z,63.20
2023-01-29T22:23:00.694Z,59.03
2023-01-29T22:25:27.881Z,58.50
2023-01-29T22:27:54.833Z,59.88
2023-01-29T22:30:23.462Z,54.45
2023-01-29T22:32:50.952Z,61.90
2023-01-29T22:35:17.826Z,58.72
2023-01-29T22:37:45.129Z,51.33
2023-01-29T22:40:12.980Z,56.63
2023-01-29T22:42:39.859Z,51.53
2023-01-29T22:45:07.348Z,51.05
2023-01-29T22:47:34.630Z,51.38
2023-01-29T22:50:01.568Z,52.35
2023-01-29T22:52:28.457Z,58.38
2023-01-29T22:54:55.510Z,52.60
2023-01-29T22:57:22.394Z,56.60
2023-01-29T22:59:49.147Z,52.47
2023-01-29T23:02:16.112Z,51.88
2023-01-29T23:04:42.914Z,53.25
2023-01-29T23:07:28.411Z,65.68
2023-01-29T23:09:55.096Z,47.53
2023-01-29T23:12:21.795Z,40.35
2023-01-29T23:14:48.733Z,53.70
2023-01-29T23:17:15.612Z,53.65
2023-01-29T23:19:42.767Z,57.70
2023-01-29T23:22:09.644Z,52.92
2023-01-29T23:24:36.562Z,52.42
2023-01-29T23:27:15.646Z,49.72
2023-01-29T23:29:43.395Z,54.63
2023-01-29T23:32:12.322Z,43.85
2023-01-29T23:34:39.221Z,50.33
2023-01-29T23:37:06.017Z,51.83
2023-01-29T23:39:32.919Z,52.08
2023-01-29T23:41:59.868Z,41.67
2023-01-29T23:44:26.725Z,44.50
2023-01-29T23:46:54.096Z,47.58
2023-01-29T23:49:21.043Z,45.45
2023-01-29T23:51:48.704Z,49.72
2023-01-29T23:54:16.392Z,45.30
2023-01-29T23:56:43.748Z,46.42
2023-01-29T23:59:10.967Z,47.33
